Terminal Aerodrome Forecast
Issued by NWS

Home | Current Version | Previous Version | Text Only | Print | Product List | Glossary On
Versions: 1 2 3 4 5 6 7 8 9 10 11 12 13 14 15 16 17 18 19
520
FTUS45 KPIH 052321
TAFSUN
TAF
KSUN 052321Z 0600/0624 15006KT P6SM FEW010 SCT100
     FM060300 31011KT P6SM BKN120
     FM061900 16007KT P6SM BKN100
      AMD LTD TO CLD VIS AND WIND 0606/0614=

USA.gov is the U.S. government's official web portal to all federal, state and local government web resources and services.